Time;durP1;ratioP1;P1;durP2;ratioP2;P2;SDS_P1;SDS_P2;PMS_P1;PMS_P2;Temp;Humidity;BMP_temperature;BMP_pressure;BME280_temperature;BME280_humidity;BME280_pressure;Samples;Min_cycle;Max_cycle;Signal;HPM_P1;HPM_P2
2023/10/19 00:00:40;;;;;;;8.30;5.45;;;;;;;11.64;100.00;97469.81;5070005;28;20082;-76
2023/10/19 00:03:06;;;;;;;7.97;4.80;;;;;;;11.65;100.00;97476.03;5070033;28;20052;-75
2023/10/19 00:05:35;;;;;;;7.45;5.03;;;;;;;11.55;100.00;97456.16;5053089;28;20040;-78
2023/10/19 00:08:16;;;;;;;7.32;5.05;;;;;;;11.60;100.00;97467.41;5069568;28;20028;-77
2023/10/19 00:10:43;;;;;;;7.38;5.28;;;;;;;11.65;100.00;97455.47;5085514;28;20166;-76
2023/10/19 00:13:11;;;;;;;10.15;5.30;;;;;;;11.78;100.00;97455.53;5069684;28;20032;-76
2023/10/19 00:15:54;;;;;;;7.15;5.13;;;;;;;11.89;100.00;97447.59;5069779;28;20032;-77
2023/10/19 00:18:23;;;;;;;9.50;5.35;;;;;;;12.07;100.00;97458.84;5071251;28;20123;-75
2023/10/19 00:23:28;;;;;;;9.65;5.88;;;;;;;12.08;100.00;97453.41;5069982;28;20025;-75
2023/10/19 00:25:57;;;;;;;6.60;4.50;;;;;;;12.24;100.00;97437.94;5069969;28;20115;-77
2023/10/19 00:28:25;;;;;;;6.32;4.43;;;;;;;12.36;100.00;97437.09;5069691;28;20120;-76
2023/10/19 00:30:52;;;;;;;8.18;5.20;;;;;;;12.36;100.00;97437.09;5053312;28;20037;-74
2023/10/19 00:33:20;;;;;;;7.22;5.57;;;;;;;12.36;100.00;97430.88;5069666;28;20031;-75
2023/10/19 00:43:42;;;;;;;9.07;5.70;;;;;;;12.31;100.00;97409.72;5070986;28;20108;-75
2023/10/19 00:49:07;;;;;;;6.95;5.10;;;;;;;12.47;100.00;97412.19;5069566;28;20032;-76
2023/10/19 00:54:26;;;;;;;7.75;4.72;;;;;;;12.38;100.00;97400.28;5085566;28;20395;-74
2023/10/19 00:56:55;;;;;;;6.15;4.60;;;;;;;12.43;100.00;97399.94;5074345;28;20032;-77
2023/10/19 00:59:24;;;;;;;7.38;5.28;;;;;;;12.40;100.00;97401.03;5073469;28;20024;-77
2023/10/19 01:04:42;;;;;;;6.18;4.82;;;;;;;12.47;100.00;97402.31;5056794;28;20076;-75
2023/10/19 01:07:15;;;;;;;7.05;4.70;;;;;;;12.43;100.00;97382.03;5056916;28;20036;-76
2023/10/19 01:09:44;;;;;;;6.65;4.53;;;;;;;12.41;100.00;97402.75;5073520;28;20064;-75
2023/10/19 01:12:25;;;;;;;5.78;4.68;;;;;;;12.36;100.00;97394.19;5073030;28;20024;-75
2023/10/19 01:15:17;;;;;;;7.75;4.80;;;;;;;12.40;100.00;97384.94;5073357;28;20056;-76
2023/10/19 01:17:53;;;;;;;6.63;4.72;;;;;;;12.37;100.00;97406.59;5058066;28;20037;-75
2023/10/19 01:20:42;;;;;;;6.15;4.38;;;;;;;12.31;100.00;97400.81;5072890;28;20048;-75
2023/10/19 01:28:25;;;;;;;5.55;4.40;;;;;;;12.44;100.00;97401.66;5073898;28;20028;-75
2023/10/19 01:30:54;;;;;;;6.35;4.43;;;;;;;12.47;100.00;97393.41;5056688;28;20206;-76
2023/10/19 01:33:24;;;;;;;5.85;4.50;;;;;;;12.34;100.00;97389.88;5073825;28;20059;-76
2023/10/19 01:38:43;;;;;;;6.45;4.88;;;;;;;12.30;100.00;97405.34;5087527;28;20036;-76
2023/10/19 01:41:18;;;;;;;7.10;5.10;;;;;;;12.19;100.00;97402.56;5072445;28;20032;-76
2023/10/19 01:43:54;;;;;;;6.97;4.95;;;;;;;12.23;100.00;97411.25;5069190;28;20040;-76
2023/10/19 01:46:22;;;;;;;6.75;5.22;;;;;;;12.19;100.00;97410.59;5072598;28;20025;-76
2023/10/19 01:48:50;;;;;;;10.00;6.30;;;;;;;12.20;100.00;97412.31;5072807;28;20027;-76
2023/10/19 01:51:16;;;;;;;11.30;5.82;;;;;;;12.08;100.00;97391.75;5088859;28;20021;-76
2023/10/19 01:53:46;;;;;;;8.60;5.70;;;;;;;12.14;100.00;97412.75;5072491;28;20028;-76
2023/10/19 01:56:12;;;;;;;10.05;6.32;;;;;;;12.07;100.00;97411.47;5072381;28;20028;-75
2023/10/19 01:58:41;;;;;;;8.93;5.80;;;;;;;12.05;100.00;97409.88;5072610;28;20100;-75
2023/10/19 02:01:29;;;;;;;9.88;6.22;;;;;;;11.92;100.00;97408.03;5072564;28;20122;-75
2023/10/19 02:04:08;;;;;;;8.55;5.97;;;;;;;11.97;100.00;97407.69;5072287;28;20182;-75
2023/10/19 02:06:38;;;;;;;9.10;6.20;;;;;;;11.92;100.00;97416.09;5071367;28;20394;-75
2023/10/19 02:11:49;;;;;;;8.30;6.40;;;;;;;11.81;100.00;97409.75;5072226;28;20029;-75
2023/10/19 02:14:16;;;;;;;8.68;6.00;;;;;;;11.87;100.00;97406.66;5071769;28;20032;-75
2023/10/19 02:16:43;;;;;;;11.68;6.70;;;;;;;11.94;100.00;97397.19;5089076;28;20032;-75
2023/10/19 02:19:12;;;;;;;8.68;5.85;;;;;;;11.90;100.00;97393.03;5071665;28;20064;-75
2023/10/19 02:21:40;;;;;;;10.07;6.25;;;;;;;11.81;100.00;97380.28;5072033;28;20031;-75
2023/10/19 02:24:14;;;;;;;11.77;6.70;;;;;;;11.83;100.00;97399.78;5072243;28;20050;-75
2023/10/19 02:26:40;;;;;;;9.30;6.45;;;;;;;11.81;100.00;97402.53;5072140;28;20115;-74
2023/10/19 02:29:09;;;;;;;8.32;6.38;;;;;;;11.79;100.00;97403.63;5071740;28;20514;-75
2023/10/19 02:31:44;;;;;;;8.93;6.18;;;;;;;11.75;100.00;97396.78;5071592;28;20028;-77
2023/10/19 02:34:15;;;;;;;9.85;6.35;;;;;;;11.69;100.00;97399.84;5072105;28;20028;-75
2023/10/19 02:36:41;;;;;;;9.02;5.90;;;;;;;11.70;100.00;97405.13;5071880;28;20052;-75
2023/10/19 02:39:13;;;;;;;9.32;6.43;;;;;;;11.71;100.00;97412.22;5071689;28;20539;-74
2023/10/19 02:41:41;;;;;;;9.57;6.35;;;;;;;11.67;100.00;97418.69;5071538;28;20031;-75
2023/10/19 02:46:44;;;;;;;8.35;6.68;;;;;;;11.58;100.00;97399.72;5071522;28;20028;-74
2023/10/19 02:49:11;;;;;;;9.63;6.22;;;;;;;11.61;100.00;97404.84;5071566;28;20112;-74
2023/10/19 02:51:45;;;;;;;6.32;4.40;;;;;;;11.62;100.00;97395.88;5054449;28;20038;-74
2023/10/19 02:54:45;;;;;;;8.93;5.55;;;;;;;11.66;100.00;97402.75;5087728;28;20029;-74
2023/10/19 02:57:07;;;;;;;6.40;5.13;;;;;;;11.63;100.00;97400.28;5070270;28;20055;-75
2023/10/19 02:59:33;;;;;;;10.32;6.53;;;;;;;11.68;100.00;97406.16;5071002;28;20029;-75
2023/10/19 03:04:37;;;;;;;9.18;6.75;;;;;;;11.61;100.00;97404.84;5071006;28;20071;-75
2023/10/19 03:07:07;;;;;;;9.75;6.07;;;;;;;11.56;100.00;97388.25;5073031;28;20028;-76
2023/10/19 03:09:36;;;;;;;10.30;5.93;;;;;;;11.52;100.00;97381.38;5070889;28;20035;-75
2023/10/19 03:12:03;;;;;;;8.55;6.32;;;;;;;11.61;100.00;97389.66;5071128;28;20040;-75
2023/10/19 03:14:32;;;;;;;12.93;6.72;;;;;;;11.61;100.00;97383.44;5070723;28;20028;-75
2023/10/19 03:16:59;;;;;;;9.38;5.78;;;;;;;11.60;100.00;97371.84;5070890;28;20105;-75
2023/10/19 03:19:26;;;;;;;9.93;6.30;;;;;;;11.62;100.00;97379.78;5070545;28;20051;-76
2023/10/19 03:21:51;;;;;;;11.77;6.70;;;;;;;11.57;100.00;97388.13;5070581;28;20111;-76
2023/10/19 03:27:15;;;;;;;12.10;5.90;;;;;;;11.58;100.00;97380.97;5051343;28;20043;-76
2023/10/19 03:29:47;;;;;;;11.27;5.47;;;;;;;11.53;100.00;97385.78;5055349;28;20032;-76
2023/10/19 03:32:14;;;;;;;10.00;6.57;;;;;;;11.54;100.00;97376.75;5053881;28;20115;-76
2023/10/19 03:34:55;;;;;;;9.60;7.00;;;;;;;11.52;100.00;97379.56;5069971;28;20051;-76
2023/10/19 03:37:25;;;;;;;11.63;7.05;;;;;;;11.56;100.00;97380.22;5070187;28;20021;-75
2023/10/19 03:39:51;;;;;;;11.40;6.47;;;;;;;11.59;100.00;97380.88;5069423;28;20078;-77
2023/10/19 03:42:17;;;;;;;10.45;6.13;;;;;;;11.56;100.00;97382.88;5069812;28;20020;-77
2023/10/19 03:47:18;;;;;;;10.65;6.40;;;;;;;11.57;100.00;97376.56;5070726;28;20074;-78
2023/10/19 03:49:44;;;;;;;12.25;6.75;;;;;;;11.53;100.00;97369.72;5069520;28;20028;-76
2023/10/19 03:54:41;;;;;;;14.70;7.15;;;;;;;11.51;100.00;97366.25;5069433;28;20021;-77
2023/10/19 03:57:12;;;;;;;8.63;5.82;;;;;;;11.43;100.00;97359.63;5069550;28;20047;-77
2023/10/19 03:59:41;;;;;;;13.70;8.60;;;;;;;11.44;100.00;97373.88;5069381;28;20024;-77
2023/10/19 04:02:20;;;;;;;9.18;5.50;;;;;;;11.52;100.00;97370.66;5070203;28;20491;-77
2023/10/19 04:04:47;;;;;;;7.47;5.25;;;;;;;11.47;100.00;97370.13;5066818;28;20035;-77
2023/10/19 04:07:20;;;;;;;13.18;7.10;;;;;;;11.50;100.00;97356.53;5083198;28;20073;-77
2023/10/19 04:12:41;;;;;;;17.15;9.90;;;;;;;11.48;100.00;97367.34;5066822;28;20036;-76
2023/10/19 04:15:17;;;;;;;9.77;6.15;;;;;;;11.48;100.00;97351.25;5068823;28;20047;-76
2023/10/19 04:17:47;;;;;;;7.88;4.75;;;;;;;11.56;100.00;97350.75;5070027;28;20100;-76
2023/10/19 04:22:45;;;;;;;7.50;5.38;;;;;;;11.60;100.00;97349.56;5069073;28;20025;-77
2023/10/19 04:25:12;;;;;;;8.23;5.78;;;;;;;11.61;100.00;97332.53;5068887;28;20024;-77
2023/10/19 04:27:42;;;;;;;9.65;6.40;;;;;;;11.63;100.00;97344.00;5068854;28;20021;-77
2023/10/19 04:30:26;;;;;;;9.88;4.63;;;;;;;11.65;100.00;97334.03;5050838;28;20116;-77
2023/10/19 04:32:53;;;;;;;11.50;6.53;;;;;;;11.68;100.00;97331.16;5068799;28;20032;-76
2023/10/19 04:35:22;;;;;;;17.20;7.15;;;;;;;11.65;100.00;97328.69;5068396;28;20065;-77
2023/10/19 04:37:53;;;;;;;10.80;6.68;;;;;;;11.64;100.00;97324.28;5068662;28;20032;-76
2023/10/19 04:40:20;;;;;;;9.57;6.82;;;;;;;11.57;100.00;97312.25;5063747;28;20491;-78
2023/10/19 04:42:46;;;;;;;10.48;6.95;;;;;;;11.63;100.00;97319.91;5068659;28;20036;-77
2023/10/19 04:45:12;;;;;;;10.85;7.32;;;;;;;11.57;100.00;97318.47;5085460;28;20435;-80
2023/10/19 04:47:38;;;;;;;16.75;6.38;;;;;;;11.52;100.00;97309.06;5068717;28;20035;-78
2023/10/19 04:50:07;;;;;;;12.90;6.85;;;;;;;11.43;100.00;97311.41;5069681;28;20123;-81
2023/10/19 04:52:33;;;;;;;8.75;4.97;;;;;;;11.51;100.00;97307.31;5068738;28;20021;-77
2023/10/19 04:55:01;;;;;;;10.50;6.55;;;;;;;11.53;100.00;97313.47;5068566;28;20051;-76
2023/10/19 04:57:26;;;;;;;9.85;6.97;;;;;;;11.56;100.00;97315.94;5068840;28;20024;-77
2023/10/19 04:59:55;;;;;;;9.82;5.75;;;;;;;11.57;100.00;97313.13;5069731;28;20028;-76
2023/10/19 05:02:21;;;;;;;11.23;6.60;;;;;;;11.54;100.00;97304.44;5068951;28;20017;-77
2023/10/19 05:04:46;;;;;;;7.60;5.50;;;;;;;11.63;100.00;97317.22;5069832;28;20385;-75
2023/10/19 05:07:14;;;;;;;10.00;6.45;;;;;;;11.66;100.00;97322.38;5067793;28;20021;-77
2023/10/19 05:09:43;;;;;;;9.43;5.82;;;;;;;11.63;100.00;97318.06;5068395;28;20087;-76
2023/10/19 05:12:09;;;;;;;12.57;6.95;;;;;;;11.67;100.00;97313.34;5068262;28;20035;-76
2023/10/19 05:14:35;;;;;;;8.77;6.00;;;;;;;11.79;100.00;97310.69;5068649;28;20059;-77
2023/10/19 05:17:04;;;;;;;10.50;6.00;;;;;;;11.88;100.00;97318.09;5068061;28;20035;-77
2023/10/19 05:19:36;;;;;;;25.45;11.68;;;;;;;11.98;100.00;97310.25;5069511;28;20095;-76
2023/10/19 05:22:04;;;;;;;13.83;7.93;;;;;;;11.96;100.00;97320.22;5068216;28;20017;-76
2023/10/19 05:24:30;;;;;;;8.45;5.85;;;;;;;11.99;100.00;97321.84;5085536;28;20266;-77
2023/10/19 05:26:56;;;;;;;11.07;7.13;;;;;;;12.12;100.00;97318.16;5069431;28;20069;-77
2023/10/19 05:29:22;;;;;;;7.68;5.35;;;;;;;12.25;100.00;97308.25;5069431;28;20333;-77
2023/10/19 05:31:53;;;;;;;11.13;6.15;;;;;;;12.76;100.00;97317.00;5068058;28;20119;-77
2023/10/19 05:34:20;;;;;;;13.82;5.95;;;;;;;13.75;100.00;97312.13;5084087;28;20020;-76
2023/10/19 05:36:48;;;;;;;9.60;5.47;;;;;;;14.57;100.00;97290.22;5068247;28;20029;-77
2023/10/19 05:39:17;;;;;;;12.18;6.40;;;;;;;15.05;100.00;97301.44;5069310;28;20674;-78
2023/10/19 05:41:42;;;;;;;12.50;6.03;;;;;;;15.67;100.00;97288.91;5069039;28;20372;-77
2023/10/19 05:44:08;;;;;;;9.27;6.32;;;;;;;15.88;100.00;97296.09;5088286;28;20093;-75
2023/10/19 05:46:37;;;;;;;8.40;5.80;;;;;;;16.27;100.00;97300.72;5071465;28;20024;-76
2023/10/19 05:49:06;;;;;;;7.60;5.03;;;;;;;16.41;100.00;97288.66;5087835;28;20139;-75
2023/10/19 05:51:32;;;;;;;8.15;5.25;;;;;;;16.61;100.00;97285.06;5072673;28;20051;-77
2023/10/19 05:54:04;;;;;;;6.32;4.60;;;;;;;16.84;100.00;97291.06;5071598;28;20033;-76
2023/10/19 05:56:34;;;;;;;;;;;;;;;17.65;91.85;97277.16;5073336;28;20407;-76
2023/10/19 05:59:00;;;;;;;7.10;5.20;;;;;;;16.18;99.71;97282.63;5055280;28;20003;-75
2023/10/19 06:01:26;;;;;;;6.80;5.07;;;;;;;15.35;100.00;97298.00;5071178;28;20032;-76
2023/10/19 06:03:52;;;;;;;7.93;5.55;;;;;;;15.09;100.00;97305.59;5072850;28;20020;-77
2023/10/19 06:06:19;;;;;;;7.53;5.40;;;;;;;15.07;100.00;97307.56;5072512;28;20028;-77
2023/10/19 06:08:45;;;;;;;6.95;5.03;;;;;;;15.01;100.00;97306.22;5071510;28;20499;-77
2023/10/19 06:11:10;;;;;;;7.57;5.45;;;;;;;15.30;100.00;97311.00;5087910;28;20112;-75
2023/10/19 06:13:43;;;;;;;5.35;4.25;;;;;;;15.35;100.00;97298.84;5071245;28;20028;-76
2023/10/19 06:16:08;;;;;;;;;;;;;;;15.07;100.00;97304.88;5072312;28;20115;-75
2023/10/19 06:18:34;;;;;;;6.53;4.57;;;;;;;15.14;100.00;97301.53;5071133;28;19979;-76
2023/10/19 06:20:59;;;;;;;10.82;6.43;;;;;;;15.15;100.00;97299.69;5072410;28;20037;-76
2023/10/19 06:23:25;;;;;;;6.50;4.78;;;;;;;15.28;100.00;97291.44;5070915;28;20404;-78
2023/10/19 06:25:51;;;;;;;9.10;4.45;;;;;;;15.14;100.00;97295.28;5070658;28;20032;-76
2023/10/19 06:28:17;;;;;;;26.25;12.00;;;;;;;15.06;100.00;97287.84;5071973;28;20115;-76
2023/10/19 06:30:42;;;;;;;9.55;5.75;;;;;;;15.34;100.00;97291.75;5072203;28;20120;-76
2023/10/19 06:33:08;;;;;;;146.00;33.55;;;;;;;15.70;100.00;97287.78;5070879;28;20083;-76
2023/10/19 06:35:37;;;;;;;35.22;12.32;;;;;;;16.31;100.00;97260.78;5070607;28;20028;-77
2023/10/19 06:38:03;;;;;;;6.07;4.32;;;;;;;16.67;99.75;97269.13;5072111;28;20033;-77
2023/10/19 06:40:30;;;;;;;5.00;4.30;;;;;;;17.39;94.10;97260.66;5070515;28;20070;-76
2023/10/19 06:42:58;;;;;;;6.93;5.03;;;;;;;17.04;93.81;97255.00;5072226;28;20025;-75
2023/10/19 06:45:29;;;;;;;16.38;4.90;;;;;;;16.61;98.27;97269.69;5070613;28;20105;-75
2023/10/19 06:47:55;;;;;;;7.15;4.63;;;;;;;16.50;99.10;97268.94;5070968;28;20017;-76
2023/10/19 06:50:22;;;;;;;7.90;3.65;;;;;;;16.80;95.54;97260.78;5070306;28;20396;-76
2023/10/19 06:52:48;;;;;;;4.40;3.50;;;;;;;16.88;93.94;97260.94;5071476;28;20043;-75
2023/10/19 06:55:22;;;;;;;5.15;4.00;;;;;;;16.42;96.11;97269.66;5070241;28;20174;-76
2023/10/19 06:57:52;;;;;;;5.25;3.50;;;;;;;16.21;98.36;97271.56;5070449;28;20039;-76
2023/10/19 07:00:26;;;;;;;5.07;3.53;;;;;;;15.72;100.00;97275.84;5070123;28;20052;-75
2023/10/19 07:02:54;;;;;;;9.30;4.05;;;;;;;15.65;100.00;97285.50;5086809;28;20024;-77
2023/10/19 07:05:22;;;;;;;6.20;3.45;;;;;;;15.95;100.00;97283.78;5070219;28;20448;-77
2023/10/19 07:07:52;;;;;;;4.82;3.78;;;;;;;16.47;98.33;97286.28;5070164;28;20028;-78
2023/10/19 07:10:18;;;;;;;5.13;3.50;;;;;;;16.74;94.32;97274.84;5069966;28;20016;-76
2023/10/19 07:12:46;;;;;;;10.18;3.70;;;;;;;17.43;90.06;97278.28;5070471;28;20028;-76
2023/10/19 07:15:18;;;;;;;5.28;3.55;;;;;;;17.75;84.44;97249.06;5070198;28;20552;-76
2023/10/19 07:17:45;;;;;;;9.30;4.38;;;;;;;17.51;86.04;97273.00;5070489;28;20386;-76
2023/10/19 07:20:28;;;;;;;5.43;3.78;;;;;;;17.34;87.61;97262.94;5069672;28;20055;-76
2023/10/19 07:23:05;;;;;;;4.15;2.97;;;;;;;17.23;87.30;97271.19;5070220;28;20437;-76
2023/10/19 07:25:31;;;;;;;4.82;3.38;;;;;;;17.46;87.22;97269.91;5069804;28;20116;-76
2023/10/19 07:27:59;;;;;;;5.95;4.30;;;;;;;18.25;84.76;97265.84;5070834;28;20554;-76
2023/10/19 07:30:28;;;;;;;5.38;3.83;;;;;;;20.51;67.78;97237.19;5069626;28;20415;-76
2023/10/19 07:32:57;;;;;;;5.80;4.20;;;;;;;21.86;58.58;97222.22;5069859;28;20040;-76
2023/10/19 07:35:25;;;;;;;4.75;3.55;;;;;;;23.32;51.93;97223.28;5069482;28;20578;-75
2023/10/19 07:37:55;;;;;;;8.65;2.10;;;;;;;21.77;53.23;97188.69;5069842;28;20498;-76
2023/10/19 07:40:21;;;;;;;9.90;3.47;;;;;;;22.00;54.29;97213.34;5069429;28;20548;-74
2023/10/19 07:42:48;;;;;;;4.35;3.35;;;;;;;22.04;52.93;97196.50;5070841;28;20042;-76
2023/10/19 07:45:16;;;;;;;5.60;3.65;;;;;;;21.61;54.19;97207.78;5069440;28;20090;-76
2023/10/19 07:47:42;;;;;;;8.13;3.60;;;;;;;20.39;58.00;97219.47;5070317;28;20168;-76
2023/10/19 07:50:16;;;;;;;9.65;4.05;;;;;;;19.06;65.62;97236.16;5070704;28;20020;-76
2023/10/19 07:52:43;;;;;;;5.35;3.63;;;;;;;18.51;71.41;97236.25;5051870;28;20044;-76
2023/10/19 07:55:12;;;;;;;4.65;3.45;;;;;;;18.48;74.15;97233.81;5069350;28;20193;-76
2023/10/19 07:57:40;;;;;;;4.72;3.63;;;;;;;18.14;76.46;97238.97;5086026;28;20529;-76
2023/10/19 08:00:08;;;;;;;9.77;3.92;;;;;;;18.19;77.69;97249.34;5070658;28;20170;-77
2023/10/19 08:02:34;;;;;;;5.05;3.60;;;;;;;18.21;77.48;97244.66;5068996;28;20111;-76
2023/10/19 08:05:03;;;;;;;5.13;4.07;;;;;;;18.31;78.10;97248.16;5068894;28;20159;-76
2023/10/19 08:07:29;;;;;;;5.22;3.08;;;;;;;18.48;75.33;97225.69;5069334;28;20025;-76
2023/10/19 08:09:54;;;;;;;3.67;3.20;;;;;;;19.01;71.81;97233.06;5069111;28;20028;-76
2023/10/19 08:12:22;;;;;;;4.75;3.72;;;;;;;20.47;63.77;97231.22;5085735;28;20401;-77
2023/10/19 08:14:48;;;;;;;4.03;3.00;;;;;;;21.37;58.18;97216.81;5069270;28;20245;-77
2023/10/19 08:17:14;;;;;;;9.52;4.70;;;;;;;22.02;54.46;97209.44;5069073;28;20547;-76
2023/10/19 08:19:40;;;;;;;7.85;2.80;;;;;;;23.26;51.31;97199.44;5068631;28;20133;-76
2023/10/19 08:22:07;;;;;;;8.55;4.20;;;;;;;23.80;49.51;97202.94;5070404;28;20020;-77
2023/10/19 08:24:34;;;;;;;15.00;4.35;;;;;;;23.86;47.73;97183.06;5070019;28;20024;-76
2023/10/19 08:27:01;;;;;;;15.40;7.35;;;;;;;23.13;48.80;97191.03;5069144;28;20028;-76
2023/10/19 08:29:26;;;;;;;4.70;3.30;;;;;;;21.92;51.11;97195.16;5068757;28;20028;-77
2023/10/19 08:31:52;;;;;;;3.58;3.20;;;;;;;21.81;52.43;97198.19;5068701;28;20175;-77
2023/10/19 08:34:19;;;;;;;3.97;2.92;;;;;;;22.65;50.42;97208.53;5068868;28;20472;-76
2023/10/19 08:36:45;;;;;;;3.25;2.50;;;;;;;23.05;49.60;97200.09;5069764;28;20107;-76
2023/10/19 08:39:13;;;;;;;3.97;3.22;;;;;;;23.03;49.28;97215.81;5069967;28;20113;-76
2023/10/19 08:41:40;;;;;;;4.05;2.95;;;;;;;21.43;52.89;97215.28;5068413;28;20027;-75
2023/10/19 08:44:17;;;;;;;7.45;4.10;;;;;;;20.94;56.42;97242.41;5068838;28;20028;-76
2023/10/19 08:46:44;;;;;;;4.05;2.95;;;;;;;20.32;58.66;97234.72;5068660;28;20028;-76
2023/10/19 08:49:16;;;;;;;6.57;3.33;;;;;;;19.83;62.70;97245.28;5068842;28;20397;-76
2023/10/19 08:51:46;;;;;;;4.18;3.28;;;;;;;19.97;62.94;97250.13;5068365;28;20517;-76
2023/10/19 08:54:15;;;;;;;3.83;3.08;;;;;;;19.74;64.05;97243.53;5068660;28;20098;-76
2023/10/19 08:56:41;;;;;;;7.53;3.17;;;;;;;19.53;65.64;97248.47;5068321;28;20025;-75
2023/10/19 08:59:11;;;;;;;11.70;4.03;;;;;;;19.77;65.42;97248.66;5068591;28;20111;-75
2023/10/19 09:01:39;;;;;;;5.90;3.80;;;;;;;20.52;60.71;97244.31;5069819;28;20040;-76
2023/10/19 09:04:08;;;;;;;6.97;3.50;;;;;;;21.30;57.95;97228.53;5062003;28;20032;-76
2023/10/19 09:06:44;;;;;;;6.78;2.80;;;;;;;21.57;55.06;97220.88;5069767;28;20052;-75
2023/10/19 09:09:20;;;;;;;5.18;3.88;;;;;;;21.43;55.29;97218.00;5052636;28;20397;-75
2023/10/19 09:11:48;;;;;;;3.88;3.20;;;;;;;21.31;55.78;97235.69;5068059;28;20108;-75
2023/10/19 09:14:17;;;;;;;4.75;3.33;;;;;;;21.05;57.23;97239.38;5069803;28;20029;-76
2023/10/19 09:16:56;;;;;;;6.13;4.22;;;;;;;20.96;58.58;97243.09;5071743;28;20033;-75
2023/10/19 09:19:42;;;;;;;4.90;3.38;;;;;;;20.74;58.92;97251.00;5073331;28;20048;-76
2023/10/19 09:22:36;;;;;;;6.05;3.83;;;;;;;20.54;59.57;97240.44;5072472;28;20124;-75
2023/10/19 09:24:57;;;;;;;5.28;3.00;;;;;;;20.60;59.61;97240.78;5071757;28;20036;-75
2023/10/19 09:27:26;;;;;;;5.97;3.60;;;;;;;20.59;59.74;97256.22;5088948;28;20024;-76
2023/10/19 09:29:51;;;;;;;4.85;3.47;;;;;;;20.09;62.28;97239.00;5071883;28;20390;-76
2023/10/19 09:32:17;;;;;;;5.95;3.97;;;;;;;19.82;64.71;97251.72;5073325;28;20025;-75
2023/10/19 09:34:47;;;;;;;5.15;3.38;;;;;;;19.96;64.23;97239.44;5073629;28;20070;-77
2023/10/19 09:37:16;;;;;;;4.00;3.42;;;;;;;20.05;63.84;97240.31;5072177;28;20089;-76
2023/10/19 09:39:43;;;;;;;6.90;4.07;;;;;;;20.55;61.83;97241.25;5073340;28;20029;-76
2023/10/19 09:42:16;;;;;;;5.13;3.55;;;;;;;21.65;57.59;97236.38;5071834;28;20420;-77
2023/10/19 09:44:48;;;;;;;5.00;3.63;;;;;;;23.38;50.97;97210.78;5087684;28;20044;-77
2023/10/19 09:47:27;;;;;;;3.63;2.72;;;;;;;24.42;47.30;97188.94;5071836;28;20472;-76
2023/10/19 09:49:59;;;;;;;4.68;3.40;;;;;;;24.73;46.82;97193.13;5071601;28;20578;-76
2023/10/19 09:52:26;;;;;;;9.82;2.85;;;;;;;25.45;44.10;97187.63;5072990;28;20025;-76
2023/10/19 09:54:59;;;;;;;5.47;3.67;;;;;;;24.72;45.31;97176.91;5071504;28;20044;-75
2023/10/19 09:57:35;;;;;;;7.25;3.67;;;;;;;23.72;47.34;97175.66;5071732;28;20103;-76
2023/10/19 10:00:14;;;;;;;6.90;2.92;;;;;;;23.87;47.60;97170.25;5071455;28;20029;-75
2023/10/19 10:02:42;;;;;;;8.00;3.95;;;;;;;23.11;49.40;97179.44;5072081;28;20059;-76
2023/10/19 10:05:42;;;;;;;4.68;3.33;;;;;;;24.58;47.06;97175.88;5055248;28;20035;-76
2023/10/19 10:08:16;;;;;;;4.68;3.45;;;;;;;26.50;42.64;97154.66;5088653;28;20023;-76
2023/10/19 10:10:43;;;;;;;5.82;3.20;;;;;;;26.73;41.89;97145.03;5072956;28;20025;-76
2023/10/19 10:13:26;;;;;;;5.43;3.45;;;;;;;26.95;41.77;97121.06;5073150;28;20070;-76
2023/10/19 10:16:04;;;;;;;4.97;3.45;;;;;;;26.69;40.89;97101.75;5088394;28;20093;-77
2023/10/19 10:18:37;;;;;;;4.32;3.50;;;;;;;24.50;44.48;97104.03;5071645;28;20048;-76
2023/10/19 10:21:24;;;;;;;4.20;3.17;;;;;;;22.97;48.30;97114.75;5087986;28;20024;-75
2023/10/19 10:24:00;;;;;;;4.63;3.20;;;;;;;22.15;50.98;97129.84;5071458;28;20031;-76
2023/10/19 10:26:29;;;;;;;4.85;3.53;;;;;;;21.13;55.06;97120.75;5071418;28;20117;-77
2023/10/19 10:29:28;;;;;;;11.27;6.05;;;;;;;20.85;58.21;97125.63;5072040;28;20062;-76
2023/10/19 10:31:58;;;;;;;7.00;4.15;;;;;;;20.73;60.08;97121.56;5104235;28;20020;-76
2023/10/19 10:34:33;;;;;;;5.57;3.42;;;;;;;20.65;60.03;97116.94;5066401;28;20452;-76
2023/10/19 10:37:02;;;;;;;5.20;3.35;;;;;;;20.65;60.60;97119.66;5072303;28;20373;-75
2023/10/19 10:39:31;;;;;;;7.78;3.33;;;;;;;21.02;59.23;97102.84;5071404;28;20111;-77
2023/10/19 10:42:05;;;;;;;5.05;3.60;;;;;;;21.46;57.54;97097.91;5071235;28;20028;-76
2023/10/19 10:44:44;;;;;;;9.32;3.22;;;;;;;22.07;55.27;97094.47;5071667;28;20119;-76
2023/10/19 10:47:17;;;;;;;6.70;3.03;;;;;;;24.25;49.24;97079.78;5070716;28;20120;-76
2023/10/19 10:49:53;;;;;;;4.55;3.58;;;;;;;24.36;47.41;97069.38;5072349;28;20032;-75
2023/10/19 10:52:30;;;;;;;3.47;3.10;;;;;;;23.98;48.18;97069.50;5069738;28;20032;-75
2023/10/19 10:55:06;;;;;;;6.00;3.40;;;;;;;24.03;47.82;97077.13;5070883;28;20025;-76
2023/10/19 10:57:33;;;;;;;4.80;3.58;;;;;;;25.86;44.98;97069.94;5070747;28;20031;-76
2023/10/19 11:00:15;;;;;;;3.78;2.78;;;;;;;27.12;41.57;97042.72;5071208;28;20027;-75
2023/10/19 11:02:49;;;;;;;3.83;2.67;;;;;;;25.62;43.25;97062.19;5071106;28;20131;-78
2023/10/19 11:05:18;;;;;;;3.78;3.00;;;;;;;24.39;45.45;97053.44;5086825;28;20028;-75
2023/10/19 11:08:06;;;;;;;4.03;3.30;;;;;;;23.27;48.09;97067.38;5070796;28;20028;-76
2023/10/19 11:10:31;;;;;;;4.20;2.97;;;;;;;23.16;48.73;97062.38;5070565;28;20032;-75
2023/10/19 11:13:04;;;;;;;4.70;3.70;;;;;;;22.55;50.63;97057.91;5070170;28;20488;-76
2023/10/19 11:15:30;;;;;;;4.40;3.50;;;;;;;22.35;51.96;97048.50;5070243;28;20522;-75
2023/10/19 11:17:57;;;;;;;4.35;3.42;;;;;;;22.16;52.21;97033.47;5070330;28;20129;-76
2023/10/19 11:20:27;;;;;;;10.15;4.25;;;;;;;22.01;53.43;97041.56;5069913;28;20037;-75
2023/10/19 11:22:55;;;;;;;4.07;3.22;;;;;;;21.89;53.68;97043.00;5070440;28;20029;-77
2023/10/19 11:25:23;;;;;;;4.97;3.45;;;;;;;21.96;54.08;97038.53;5070308;28;20060;-75
2023/10/19 11:27:49;;;;;;;4.38;2.50;;;;;;;22.76;51.76;97025.41;5070535;28;20027;-76
2023/10/19 11:30:23;;;;;;;4.20;2.90;;;;;;;24.19;48.48;97017.66;5070123;28;20395;-75
2023/10/19 11:32:52;;;;;;;3.85;2.55;;;;;;;25.14;45.58;97006.38;5087118;28;20050;-75
2023/10/19 11:35:21;;;;;;;5.03;2.90;;;;;;;25.02;45.87;97005.25;5070137;28;20040;-75
2023/10/19 11:37:50;;;;;;;3.80;3.10;;;;;;;24.65;46.54;97009.09;5070197;28;20021;-75
2023/10/19 11:40:16;;;;;;;4.75;3.42;;;;;;;24.16;47.29;97019.94;5068979;28;20081;-74
2023/10/19 11:42:42;;;;;;;3.25;2.90;;;;;;;23.93;48.22;97021.94;5071413;28;20032;-75
2023/10/19 11:45:08;;;;;;;3.40;2.58;;;;;;;23.69;48.38;97014.88;5070038;28;20094;-75
2023/10/19 11:47:34;;;;;;;8.82;4.25;;;;;;;23.60;49.17;97003.22;5070918;28;20032;-75
2023/10/19 11:50:00;;;;;;;5.13;3.40;;;;;;;23.39;49.65;97011.31;5069974;28;20061;-75
2023/10/19 11:52:29;;;;;;;3.00;2.58;;;;;;;23.42;49.75;97015.56;5069539;28;20063;-75
2023/10/19 11:54:55;;;;;;;8.63;5.43;;;;;;;23.34;49.89;97023.81;5070059;28;20063;-75
2023/10/19 11:57:20;;;;;;;5.20;3.97;;;;;;;23.63;50.12;97026.56;5086387;28;20056;-75
2023/10/19 11:59:52;;;;;;;8.10;3.05;;;;;;;24.39;48.30;97003.38;5070203;28;20028;-74
2023/10/19 12:02:18;;;;;;;11.73;2.65;;;;;;;24.84;46.40;96986.59;5070803;28;20035;-75
2023/10/19 12:04:45;;;;;;;5.75;3.20;;;;;;;24.83;47.14;97001.28;5069831;28;20037;-76
2023/10/19 12:07:11;;;;;;;3.85;3.00;;;;;;;24.49;47.25;96985.59;5070878;28;20503;-75
2023/10/19 12:09:37;;;;;;;3.58;2.70;;;;;;;24.34;48.06;96975.75;5069478;28;20029;-75
2023/10/19 12:12:06;;;;;;;3.58;2.58;;;;;;;23.94;48.26;96975.28;5086374;28;20043;-75
2023/10/19 12:14:34;;;;;;;3.80;3.05;;;;;;;23.59;49.30;96978.84;5069343;28;20048;-75
2023/10/19 12:17:02;;;;;;;4.43;3.03;;;;;;;23.77;49.29;96975.72;5069704;28;20028;-75
2023/10/19 12:19:31;;;;;;;3.58;2.95;;;;;;;25.30;46.24;96957.66;5069481;28;20428;-75
2023/10/19 12:21:57;;;;;;;4.47;2.95;;;;;;;27.17;42.97;96952.28;5069444;28;20480;-74
2023/10/19 12:24:23;;;;;;;5.13;2.50;;;;;;;28.90;39.42;96954.94;5069304;28;20028;-76
2023/10/19 12:26:50;;;;;;;7.18;2.60;;;;;;;29.39;38.72;96946.66;5069173;28;20032;-75
2023/10/19 12:29:20;;;;;;;3.10;2.60;;;;;;;30.37;36.92;96950.16;5069426;28;20025;-76